Strona główna
METAR-TAF:

METAR-TAF

Lotnisko :

Port lotniczy Singapur-Paya Lebar

Singapur, Singapur

Szerokość geograficzna: 01-22N, Długość geograficzna: 103-55E, wysokość: 18 m

Aktualna obserwacja pogody

Raport powstał 19 minut temu, godzina 07:00 UTC
Wiatr 15 kt od wschodnio-północny wschód
Temperatura 31°C
Wilgotność 63%
Ciśnienie 1010 hPa
Widzialność 10 km lub więcej
Rozproszone chmury na wysokości 1800 ft
Mało chmury na wysokości 2000 ft, Cumulusy wypiętrznone.
Przerywane chmury na wysokości 30000 ft

METAR: WSAP 240700Z 06015KT 9999 SCT018 FEW020TCU BKN300 31/23 Q1010

czas: 15:19 (07:19 UTC)

Prognoza

Raport powstał 2 godziny i 19 minut temu, godzina 05:00 UTC
Prognoza ważna od 24 godzina 06 UTC do 25 godzina 12 UTC
Wiatr 10 kt od północno-północny wschód
Widzialność 10 km lub więcej
Rozproszone chmury na wysokości 2000 ft

TAF: WSAP 240500Z 2406/2512 03010KT 9999 SCT020

Obserwacja i prognoza pogody dla ponad 4000 lotnisk (raport METAR i TAF).

Dostępne stacje oznaczono żółtymi i czerwonymi punktami na mapie.

Najedź kursorem aby zobaczyć nazwę stacji.

Kliknij aby zobaczyć obserwacje i prognozy pogody.

Aby zmienić mapę: kliknij na zielony przycisk z czarnym krzyżykiem, aby powiększyć; na zielony przycisk z myślnikiem, aby pomniejszyć; na zielone strzałki, aby przejść do map sąsiednich.


METAR-TAF: